sensor_id;sensor_type;location;lat;lon;timestamp;temperature;humidity
15625;DHT22;7912;51.376;6.126;2024-03-22T00:02:08;14.80;99.90
15625;DHT22;7912;51.376;6.126;2024-03-22T00:04:37;14.90;99.90
15625;DHT22;7912;51.376;6.126;2024-03-22T00:07:03;14.80;99.90
15625;DHT22;7912;51.376;6.126;2024-03-22T00:09:30;14.90;99.90
15625;DHT22;7912;51.376;6.126;2024-03-22T00:11:57;14.90;99.90
15625;DHT22;7912;51.376;6.126;2024-03-22T00:14:23;14.90;99.90
15625;DHT22;7912;51.376;6.126;2024-03-22T00:16:50;14.90;99.90
15625;DHT22;7912;51.376;6.126;2024-03-22T00:19:16;14.90;99.90
15625;DHT22;7912;51.376;6.126;2024-03-22T00:21:42;14.90;99.90
15625;DHT22;7912;51.376;6.126;2024-03-22T00:24:09;14.90;99.90
15625;DHT22;7912;51.376;6.126;2024-03-22T00:26:35;14.90;99.90
15625;DHT22;7912;51.376;6.126;2024-03-22T00:29:01;14.90;99.90
15625;DHT22;7912;51.376;6.126;2024-03-22T00:31:27;14.90;99.90
15625;DHT22;7912;51.376;6.126;2024-03-22T00:34:12;14.90;99.90
15625;DHT22;7912;51.376;6.126;2024-03-22T00:36:38;14.80;99.90
15625;DHT22;7912;51.376;6.126;2024-03-22T00:39:04;14.80;99.90
15625;DHT22;7912;51.376;6.126;2024-03-22T00:41:31;14.80;99.90
15625;DHT22;7912;51.376;6.126;2024-03-22T00:43:58;14.90;99.90
15625;DHT22;7912;51.376;6.126;2024-03-22T00:46:24;14.80;99.90
15625;DHT22;7912;51.376;6.126;2024-03-22T00:48:50;14.90;99.90
15625;DHT22;7912;51.376;6.126;2024-03-22T00:51:16;14.80;99.90
15625;DHT22;7912;51.376;6.126;2024-03-22T00:53:42;14.80;99.90
15625;DHT22;7912;51.376;6.126;2024-03-22T00:56:08;14.80;99.90
15625;DHT22;7912;51.376;6.126;2024-03-22T00:58:35;14.90;99.90
15625;DHT22;7912;51.376;6.126;2024-03-22T01:01:01;14.80;99.90
15625;DHT22;7912;51.376;6.126;2024-03-22T01:03:27;14.90;99.90
15625;DHT22;7912;51.376;6.126;2024-03-22T01:05:53;14.90;99.90
15625;DHT22;7912;51.376;6.126;2024-03-22T01:08:19;14.90;99.90
15625;DHT22;7912;51.376;6.126;2024-03-22T01:10:45;14.90;99.90
15625;DHT22;7912;51.376;6.126;2024-03-22T01:13:11;14.90;99.90
15625;DHT22;7912;51.376;6.126;2024-03-22T01:15:37;14.90;99.90
15625;DHT22;7912;51.376;6.126;2024-03-22T01:18:04;14.90;99.90
15625;DHT22;7912;51.376;6.126;2024-03-22T01:20:30;14.90;99.90
15625;DHT22;7912;51.376;6.126;2024-03-22T01:22:56;14.90;99.90
15625;DHT22;7912;51.376;6.126;2024-03-22T01:25:22;14.90;99.90
15625;DHT22;7912;51.376;6.126;2024-03-22T01:27:48;14.90;99.90
15625;DHT22;7912;51.376;6.126;2024-03-22T01:30:15;14.90;99.90
15625;DHT22;7912;51.376;6.126;2024-03-22T01:32:41;14.90;99.90
15625;DHT22;7912;51.376;6.126;2024-03-22T01:35:08;14.90;99.90
15625;DHT22;7912;51.376;6.126;2024-03-22T01:37:34;14.90;99.90
15625;DHT22;7912;51.376;6.126;2024-03-22T01:40:01;15.00;99.90
15625;DHT22;7912;51.376;6.126;2024-03-22T01:42:28;15.00;99.90
15625;DHT22;7912;51.376;6.126;2024-03-22T01:44:54;15.00;99.90
15625;DHT22;7912;51.376;6.126;2024-03-22T01:47:20;15.00;99.90
15625;DHT22;7912;51.376;6.126;2024-03-22T01:49:48;15.00;99.90
15625;DHT22;7912;51.376;6.126;2024-03-22T01:52:16;15.00;99.90
15625;DHT22;7912;51.376;6.126;2024-03-22T01:54:42;15.00;99.90
15625;DHT22;7912;51.376;6.126;2024-03-22T01:57:08;15.00;99.90
15625;DHT22;7912;51.376;6.126;2024-03-22T01:59:35;15.00;99.90
15625;DHT22;7912;51.376;6.126;2024-03-22T02:02:02;15.10;99.90
15625;DHT22;7912;51.376;6.126;2024-03-22T02:04:28;15.00;99.90
15625;DHT22;7912;51.376;6.126;2024-03-22T02:06:54;15.10;99.90
15625;DHT22;7912;51.376;6.126;2024-03-22T02:09:20;15.10;99.90
15625;DHT22;7912;51.376;6.126;2024-03-22T02:11:47;15.10;99.90
15625;DHT22;7912;51.376;6.126;2024-03-22T02:14:14;15.10;99.90
15625;DHT22;7912;51.376;6.126;2024-03-22T02:16:40;15.10;99.90
15625;DHT22;7912;51.376;6.126;2024-03-22T02:19:07;15.10;99.90
15625;DHT22;7912;51.376;6.126;2024-03-22T02:21:35;15.20;99.90
15625;DHT22;7912;51.376;6.126;2024-03-22T02:24:01;15.10;99.90
15625;DHT22;7912;51.376;6.126;2024-03-22T02:26:27;15.20;99.90
15625;DHT22;7912;51.376;6.126;2024-03-22T02:28:53;15.20;99.90
15625;DHT22;7912;51.376;6.126;2024-03-22T02:31:19;15.20;99.90
15625;DHT22;7912;51.376;6.126;2024-03-22T02:33:46;15.20;99.90
15625;DHT22;7912;51.376;6.126;2024-03-22T02:36:12;15.20;99.90
15625;DHT22;7912;51.376;6.126;2024-03-22T02:38:38;15.20;99.90
15625;DHT22;7912;51.376;6.126;2024-03-22T02:41:05;15.20;99.90
15625;DHT22;7912;51.376;6.126;2024-03-22T02:43:31;15.20;99.90
15625;DHT22;7912;51.376;6.126;2024-03-22T02:45:57;15.30;99.90
15625;DHT22;7912;51.376;6.126;2024-03-22T02:48:23;15.20;99.90
15625;DHT22;7912;51.376;6.126;2024-03-22T02:50:49;15.20;99.90
15625;DHT22;7912;51.376;6.126;2024-03-22T02:53:21;15.30;99.90
15625;DHT22;7912;51.376;6.126;2024-03-22T02:55:47;15.30;99.90
15625;DHT22;7912;51.376;6.126;2024-03-22T02:58:13;15.20;99.90
15625;DHT22;7912;51.376;6.126;2024-03-22T03:00:39;15.20;99.90
15625;DHT22;7912;51.376;6.126;2024-03-22T03:03:06;15.20;99.90
15625;DHT22;7912;51.376;6.126;2024-03-22T03:05:32;15.20;99.90
15625;DHT22;7912;51.376;6.126;2024-03-22T03:07:58;15.20;99.90
15625;DHT22;7912;51.376;6.126;2024-03-22T03:10:25;15.20;99.90
15625;DHT22;7912;51.376;6.126;2024-03-22T03:12:54;15.10;99.90
15625;DHT22;7912;51.376;6.126;2024-03-22T03:15:21;15.10;99.90
15625;DHT22;7912;51.376;6.126;2024-03-22T03:17:47;15.10;99.90
15625;DHT22;7912;51.376;6.126;2024-03-22T03:20:13;15.10;99.90
15625;DHT22;7912;51.376;6.126;2024-03-22T03:22:41;15.00;99.90
15625;DHT22;7912;51.376;6.126;2024-03-22T03:25:07;15.00;99.90
15625;DHT22;7912;51.376;6.126;2024-03-22T03:27:34;15.00;99.90
15625;DHT22;7912;51.376;6.126;2024-03-22T03:30:00;15.00;99.90
15625;DHT22;7912;51.376;6.126;2024-03-22T03:32:28;15.00;99.90
15625;DHT22;7912;51.376;6.126;2024-03-22T03:34:54;14.90;99.90
15625;DHT22;7912;51.376;6.126;2024-03-22T03:37:21;14.90;99.90
15625;DHT22;7912;51.376;6.126;2024-03-22T03:39:47;14.90;99.90
15625;DHT22;7912;51.376;6.126;2024-03-22T03:42:13;14.90;99.90
15625;DHT22;7912;51.376;6.126;2024-03-22T03:44:39;14.90;99.90
15625;DHT22;7912;51.376;6.126;2024-03-22T03:47:07;14.80;99.90
15625;DHT22;7912;51.376;6.126;2024-03-22T03:49:34;14.90;99.90
15625;DHT22;7912;51.376;6.126;2024-03-22T03:52:00;14.80;99.90
15625;DHT22;7912;51.376;6.126;2024-03-22T03:54:27;14.80;99.90
15625;DHT22;7912;51.376;6.126;2024-03-22T03:56:53;14.80;99.90
15625;DHT22;7912;51.376;6.126;2024-03-22T03:59:19;14.80;99.90
15625;DHT22;7912;51.376;6.126;2024-03-22T04:01:46;14.80;99.90
15625;DHT22;7912;51.376;6.126;2024-03-22T04:04:12;14.80;99.90
15625;DHT22;7912;51.376;6.126;2024-03-22T04:06:38;14.90;99.90
15625;DHT22;7912;51.376;6.126;2024-03-22T04:09:04;14.90;99.90
15625;DHT22;7912;51.376;6.126;2024-03-22T04:11:31;14.90;99.90
15625;DHT22;7912;51.376;6.126;2024-03-22T04:13:57;14.90;99.90
15625;DHT22;7912;51.376;6.126;2024-03-22T04:16:23;14.90;99.90
15625;DHT22;7912;51.376;6.126;2024-03-22T04:18:49;14.90;99.90
15625;DHT22;7912;51.376;6.126;2024-03-22T04:21:16;14.90;99.90
15625;DHT22;7912;51.376;6.126;2024-03-22T04:23:42;14.90;99.90
15625;DHT22;7912;51.376;6.126;2024-03-22T04:26:08;14.90;99.90
15625;DHT22;7912;51.376;6.126;2024-03-22T04:28:34;14.90;99.90
15625;DHT22;7912;51.376;6.126;2024-03-22T04:31:03;14.90;99.90
15625;DHT22;7912;51.376;6.126;2024-03-22T04:33:32;14.90;99.90
15625;DHT22;7912;51.376;6.126;2024-03-22T04:35:59;14.90;99.90
15625;DHT22;7912;51.376;6.126;2024-03-22T04:38:27;14.90;99.90
15625;DHT22;7912;51.376;6.126;2024-03-22T04:40:54;14.90;99.90
15625;DHT22;7912;51.376;6.126;2024-03-22T04:43:23;14.90;99.90
15625;DHT22;7912;51.376;6.126;2024-03-22T04:45:50;14.90;99.90
15625;DHT22;7912;51.376;6.126;2024-03-22T04:48:19;14.90;99.90
15625;DHT22;7912;51.376;6.126;2024-03-22T04:50:47;14.90;99.90
15625;DHT22;7912;51.376;6.126;2024-03-22T04:53:16;14.90;99.90
15625;DHT22;7912;51.376;6.126;2024-03-22T04:55:44;14.90;99.90
15625;DHT22;7912;51.376;6.126;2024-03-22T04:58:13;14.90;99.90
15625;DHT22;7912;51.376;6.126;2024-03-22T05:00:41;14.90;99.90
15625;DHT22;7912;51.376;6.126;2024-03-22T05:03:08;14.90;99.90
15625;DHT22;7912;51.376;6.126;2024-03-22T05:05:34;14.90;99.90
15625;DHT22;7912;51.376;6.126;2024-03-22T05:08:01;14.90;99.90
15625;DHT22;7912;51.376;6.126;2024-03-22T05:10:29;14.90;99.90
15625;DHT22;7912;51.376;6.126;2024-03-22T05:12:58;14.90;99.90
15625;DHT22;7912;51.376;6.126;2024-03-22T05:15:25;14.90;99.90
15625;DHT22;7912;51.376;6.126;2024-03-22T05:17:53;14.90;99.90
15625;DHT22;7912;51.376;6.126;2024-03-22T05:20:20;14.90;99.90
15625;DHT22;7912;51.376;6.126;2024-03-22T05:22:47;14.90;99.90
15625;DHT22;7912;51.376;6.126;2024-03-22T05:25:14;14.90;99.90
15625;DHT22;7912;51.376;6.126;2024-03-22T05:27:44;14.90;99.90
15625;DHT22;7912;51.376;6.126;2024-03-22T05:30:12;14.90;99.90
15625;DHT22;7912;51.376;6.126;2024-03-22T05:32:41;14.90;99.90
15625;DHT22;7912;51.376;6.126;2024-03-22T05:35:08;14.90;99.90
15625;DHT22;7912;51.376;6.126;2024-03-22T05:37:34;14.90;99.90
15625;DHT22;7912;51.376;6.126;2024-03-22T05:40:02;14.90;99.90
15625;DHT22;7912;51.376;6.126;2024-03-22T05:42:30;14.90;99.90
15625;DHT22;7912;51.376;6.126;2024-03-22T05:44:56;14.90;99.90
15625;DHT22;7912;51.376;6.126;2024-03-22T05:47:22;14.90;99.90
15625;DHT22;7912;51.376;6.126;2024-03-22T05:49:49;14.90;99.90
15625;DHT22;7912;51.376;6.126;2024-03-22T05:52:15;14.90;99.90
15625;DHT22;7912;51.376;6.126;2024-03-22T05:54:41;14.90;99.90
15625;DHT22;7912;51.376;6.126;2024-03-22T05:57:07;14.90;99.90
15625;DHT22;7912;51.376;6.126;2024-03-22T05:59:33;15.00;99.90
15625;DHT22;7912;51.376;6.126;2024-03-22T06:02:00;15.00;99.90
15625;DHT22;7912;51.376;6.126;2024-03-22T06:04:28;15.00;99.90
15625;DHT22;7912;51.376;6.126;2024-03-22T06:07:13;15.00;99.90
15625;DHT22;7912;51.376;6.126;2024-03-22T06:09:40;15.00;99.90
15625;DHT22;7912;51.376;6.126;2024-03-22T06:12:13;15.00;99.90
15625;DHT22;7912;51.376;6.126;2024-03-22T06:14:40;15.00;99.90
15625;DHT22;7912;51.376;6.126;2024-03-22T06:17:08;15.00;99.90
15625;DHT22;7912;51.376;6.126;2024-03-22T06:19:35;15.00;99.90
15625;DHT22;7912;51.376;6.126;2024-03-22T06:22:02;15.00;99.90
15625;DHT22;7912;51.376;6.126;2024-03-22T06:24:29;15.00;99.90
15625;DHT22;7912;51.376;6.126;2024-03-22T06:26:55;15.00;99.90
15625;DHT22;7912;51.376;6.126;2024-03-22T06:29:21;15.00;99.90
15625;DHT22;7912;51.376;6.126;2024-03-22T06:31:48;15.00;99.90
15625;DHT22;7912;51.376;6.126;2024-03-22T06:34:16;15.00;99.90
15625;DHT22;7912;51.376;6.126;2024-03-22T06:36:42;15.10;99.90
15625;DHT22;7912;51.376;6.126;2024-03-22T06:39:08;15.10;99.90
15625;DHT22;7912;51.376;6.126;2024-03-22T06:41:36;15.10;99.90
15625;DHT22;7912;51.376;6.126;2024-03-22T06:44:03;15.20;99.90
15625;DHT22;7912;51.376;6.126;2024-03-22T06:46:30;15.20;99.90
15625;DHT22;7912;51.376;6.126;2024-03-22T06:48:57;15.30;99.90
15625;DHT22;7912;51.376;6.126;2024-03-22T06:51:24;15.30;99.90
15625;DHT22;7912;51.376;6.126;2024-03-22T06:53:50;15.40;99.90
15625;DHT22;7912;51.376;6.126;2024-03-22T06:56:17;15.50;99.90
15625;DHT22;7912;51.376;6.126;2024-03-22T06:58:44;15.50;99.90
15625;DHT22;7912;51.376;6.126;2024-03-22T07:01:10;15.60;99.90
15625;DHT22;7912;51.376;6.126;2024-03-22T07:03:36;15.60;99.90
15625;DHT22;7912;51.376;6.126;2024-03-22T07:06:02;15.70;99.90
15625;DHT22;7912;51.376;6.126;2024-03-22T07:08:29;15.70;99.90
15625;DHT22;7912;51.376;6.126;2024-03-22T07:10:56;15.80;99.90
15625;DHT22;7912;51.376;6.126;2024-03-22T07:13:22;15.80;99.90
15625;DHT22;7912;51.376;6.126;2024-03-22T07:15:48;15.90;99.90
15625;DHT22;7912;51.376;6.126;2024-03-22T07:18:15;15.90;99.90
15625;DHT22;7912;51.376;6.126;2024-03-22T07:20:42;16.00;99.90
15625;DHT22;7912;51.376;6.126;2024-03-22T07:23:08;16.00;99.90
15625;DHT22;7912;51.376;6.126;2024-03-22T07:25:35;16.00;99.90
15625;DHT22;7912;51.376;6.126;2024-03-22T07:28:01;16.10;99.90
15625;DHT22;7912;51.376;6.126;2024-03-22T07:30:27;16.20;99.90
15625;DHT22;7912;51.376;6.126;2024-03-22T07:32:53;16.30;99.90
15625;DHT22;7912;51.376;6.126;2024-03-22T07:35:20;16.30;99.90
15625;DHT22;7912;51.376;6.126;2024-03-22T07:40:50;16.40;99.90
15625;DHT22;7912;51.376;6.126;2024-03-22T07:43:16;16.50;99.90
15625;DHT22;7912;51.376;6.126;2024-03-22T07:45:42;16.50;99.90
15625;DHT22;7912;51.376;6.126;2024-03-22T07:48:08;16.60;99.90
15625;DHT22;7912;51.376;6.126;2024-03-22T07:50:36;16.60;99.90
15625;DHT22;7912;51.376;6.126;2024-03-22T07:53:02;16.50;99.90
15625;DHT22;7912;51.376;6.126;2024-03-22T07:55:31;16.60;99.90
15625;DHT22;7912;51.376;6.126;2024-03-22T07:57:57;16.50;99.90
15625;DHT22;7912;51.376;6.126;2024-03-22T08:00:24;16.60;99.90
15625;DHT22;7912;51.376;6.126;2024-03-22T08:02:52;16.60;99.90
15625;DHT22;7912;51.376;6.126;2024-03-22T08:05:38;16.60;99.90
15625;DHT22;7912;51.376;6.126;2024-03-22T08:08:04;16.60;99.90
15625;DHT22;7912;51.376;6.126;2024-03-22T08:10:31;16.60;99.90
15625;DHT22;7912;51.376;6.126;2024-03-22T08:12:57;16.70;99.90
15625;DHT22;7912;51.376;6.126;2024-03-22T08:15:24;16.80;99.90
15625;DHT22;7912;51.376;6.126;2024-03-22T08:17:50;16.80;99.90
15625;DHT22;7912;51.376;6.126;2024-03-22T08:20:17;16.90;99.90
15625;DHT22;7912;51.376;6.126;2024-03-22T08:22:43;17.00;99.90
15625;DHT22;7912;51.376;6.126;2024-03-22T08:25:09;17.00;99.90
15625;DHT22;7912;51.376;6.126;2024-03-22T08:27:36;17.10;99.90
15625;DHT22;7912;51.376;6.126;2024-03-22T08:30:02;17.10;99.90
15625;DHT22;7912;51.376;6.126;2024-03-22T08:32:29;17.20;99.90
15625;DHT22;7912;51.376;6.126;2024-03-22T08:34:55;17.20;99.90
15625;DHT22;7912;51.376;6.126;2024-03-22T08:37:22;17.20;99.90
15625;DHT22;7912;51.376;6.126;2024-03-22T08:39:48;17.30;99.90
15625;DHT22;7912;51.376;6.126;2024-03-22T08:42:14;17.30;99.90
15625;DHT22;7912;51.376;6.126;2024-03-22T08:44:40;17.30;99.90
15625;DHT22;7912;51.376;6.126;2024-03-22T08:47:06;17.40;99.90
15625;DHT22;7912;51.376;6.126;2024-03-22T08:49:33;17.40;99.90
15625;DHT22;7912;51.376;6.126;2024-03-22T08:52:02;17.50;99.90
15625;DHT22;7912;51.376;6.126;2024-03-22T08:54:28;17.60;99.90
15625;DHT22;7912;51.376;6.126;2024-03-22T08:56:54;17.70;99.90
15625;DHT22;7912;51.376;6.126;2024-03-22T08:59:20;17.80;99.90
15625;DHT22;7912;51.376;6.126;2024-03-22T09:01:47;18.00;99.90
15625;DHT22;7912;51.376;6.126;2024-03-22T09:04:14;18.10;99.90
15625;DHT22;7912;51.376;6.126;2024-03-22T09:06:41;18.20;99.90
15625;DHT22;7912;51.376;6.126;2024-03-22T09:09:07;18.30;99.90
15625;DHT22;7912;51.376;6.126;2024-03-22T09:11:35;18.40;99.90
15625;DHT22;7912;51.376;6.126;2024-03-22T09:14:01;18.40;99.90
15625;DHT22;7912;51.376;6.126;2024-03-22T09:16:27;18.40;99.90
15625;DHT22;7912;51.376;6.126;2024-03-22T09:18:54;18.50;99.90
15625;DHT22;7912;51.376;6.126;2024-03-22T09:21:20;18.50;99.90
15625;DHT22;7912;51.376;6.126;2024-03-22T09:23:46;18.50;99.90
15625;DHT22;7912;51.376;6.126;2024-03-22T09:26:12;18.50;99.90
15625;DHT22;7912;51.376;6.126;2024-03-22T09:28:41;18.50;99.90
15625;DHT22;7912;51.376;6.126;2024-03-22T09:31:10;18.50;99.90
15625;DHT22;7912;51.376;6.126;2024-03-22T09:33:37;18.40;99.90
15625;DHT22;7912;51.376;6.126;2024-03-22T09:36:03;18.40;99.90
15625;DHT22;7912;51.376;6.126;2024-03-22T09:38:30;18.40;99.90
15625;DHT22;7912;51.376;6.126;2024-03-22T09:40:56;18.40;99.90
15625;DHT22;7912;51.376;6.126;2024-03-22T09:43:23;18.40;99.90
15625;DHT22;7912;51.376;6.126;2024-03-22T09:45:49;18.40;99.90
15625;DHT22;7912;51.376;6.126;2024-03-22T09:48:18;18.40;99.90
15625;DHT22;7912;51.376;6.126;2024-03-22T09:50:48;18.40;99.90
15625;DHT22;7912;51.376;6.126;2024-03-22T09:53:19;18.40;99.90
15625;DHT22;7912;51.376;6.126;2024-03-22T09:55:48;18.40;99.90
15625;DHT22;7912;51.376;6.126;2024-03-22T09:58:16;18.50;99.90
15625;DHT22;7912;51.376;6.126;2024-03-22T10:00:45;18.50;99.90
15625;DHT22;7912;51.376;6.126;2024-03-22T10:03:12;18.50;99.90
15625;DHT22;7912;51.376;6.126;2024-03-22T10:05:39;18.50;99.90
15625;DHT22;7912;51.376;6.126;2024-03-22T10:08:05;18.50;99.90
15625;DHT22;7912;51.376;6.126;2024-03-22T10:10:32;18.50;99.90
15625;DHT22;7912;51.376;6.126;2024-03-22T10:13:03;18.50;99.90
15625;DHT22;7912;51.376;6.126;2024-03-22T10:15:32;18.50;99.70
15625;DHT22;7912;51.376;6.126;2024-03-22T10:17:59;18.60;99.90
15625;DHT22;7912;51.376;6.126;2024-03-22T10:20:25;18.60;99.90
15625;DHT22;7912;51.376;6.126;2024-03-22T10:22:58;18.60;99.90
15625;DHT22;7912;51.376;6.126;2024-03-22T10:25:26;18.70;99.80
15625;DHT22;7912;51.376;6.126;2024-03-22T10:27:56;18.70;99.70
15625;DHT22;7912;51.376;6.126;2024-03-22T10:30:23;18.70;99.50
15625;DHT22;7912;51.376;6.126;2024-03-22T10:32:51;18.80;99.30
15625;DHT22;7912;51.376;6.126;2024-03-22T10:35:17;18.80;99.40
15625;DHT22;7912;51.376;6.126;2024-03-22T10:37:44;18.80;98.90
15625;DHT22;7912;51.376;6.126;2024-03-22T10:40:11;18.80;98.70
15625;DHT22;7912;51.376;6.126;2024-03-22T10:42:39;18.90;98.90
15625;DHT22;7912;51.376;6.126;2024-03-22T10:45:08;18.90;98.70
15625;DHT22;7912;51.376;6.126;2024-03-22T10:47:36;18.90;98.60
15625;DHT22;7912;51.376;6.126;2024-03-22T10:52:48;18.90;98.40
15625;DHT22;7912;51.376;6.126;2024-03-22T10:58:00;18.80;98.20
15625;DHT22;7912;51.376;6.126;2024-03-22T11:00:33;18.80;98.60
15625;DHT22;7912;51.376;6.126;2024-03-22T11:03:04;18.70;98.50
15625;DHT22;7912;51.376;6.126;2024-03-22T11:05:30;18.60;98.60
15625;DHT22;7912;51.376;6.126;2024-03-22T11:10:30;18.40;98.60
15625;DHT22;7912;51.376;6.126;2024-03-22T11:13:03;18.30;98.60
15625;DHT22;7912;51.376;6.126;2024-03-22T11:15:31;18.20;98.70
15625;DHT22;7912;51.376;6.126;2024-03-22T11:18:01;18.20;99.00
15625;DHT22;7912;51.376;6.126;2024-03-22T11:20:27;18.00;99.10
15625;DHT22;7912;51.376;6.126;2024-03-22T11:22:56;18.00;99.30
15625;DHT22;7912;51.376;6.126;2024-03-22T11:25:23;17.80;99.40
15625;DHT22;7912;51.376;6.126;2024-03-22T11:27:49;17.80;99.60
15625;DHT22;7912;51.376;6.126;2024-03-22T11:30:15;17.70;99.80
15625;DHT22;7912;51.376;6.126;2024-03-22T11:32:43;17.60;99.90
15625;DHT22;7912;51.376;6.126;2024-03-22T11:35:12;17.50;99.90
15625;DHT22;7912;51.376;6.126;2024-03-22T11:37:39;17.50;99.90
15625;DHT22;7912;51.376;6.126;2024-03-22T11:40:09;17.50;99.90
15625;DHT22;7912;51.376;6.126;2024-03-22T11:42:40;17.40;99.90
15625;DHT22;7912;51.376;6.126;2024-03-22T11:45:12;17.30;99.90
15625;DHT22;7912;51.376;6.126;2024-03-22T11:47:44;17.20;99.90
15625;DHT22;7912;51.376;6.126;2024-03-22T11:50:15;17.20;99.90
15625;DHT22;7912;51.376;6.126;2024-03-22T11:52:42;17.20;99.90
15625;DHT22;7912;51.376;6.126;2024-03-22T11:55:10;17.10;99.90
15625;DHT22;7912;51.376;6.126;2024-03-22T11:57:37;17.10;99.90
15625;DHT22;7912;51.376;6.126;2024-03-22T12:00:04;17.00;99.90
15625;DHT22;7912;51.376;6.126;2024-03-22T12:02:38;17.00;99.90
15625;DHT22;7912;51.376;6.126;2024-03-22T12:05:05;16.90;99.90
15625;DHT22;7912;51.376;6.126;2024-03-22T12:07:31;16.80;99.90
15625;DHT22;7912;51.376;6.126;2024-03-22T12:09:59;16.80;99.90
15625;DHT22;7912;51.376;6.126;2024-03-22T12:12:25;16.80;99.90
15625;DHT22;7912;51.376;6.126;2024-03-22T12:14:53;16.70;99.90
15625;DHT22;7912;51.376;6.126;2024-03-22T12:17:19;16.60;99.90
15625;DHT22;7912;51.376;6.126;2024-03-22T12:19:45;16.60;99.90
15625;DHT22;7912;51.376;6.126;2024-03-22T12:22:12;16.50;99.90
15625;DHT22;7912;51.376;6.126;2024-03-22T12:24:38;16.40;99.90
15625;DHT22;7912;51.376;6.126;2024-03-22T12:27:04;16.30;99.90
15625;DHT22;7912;51.376;6.126;2024-03-22T12:29:35;16.30;99.90
15625;DHT22;7912;51.376;6.126;2024-03-22T12:32:04;16.20;99.90
15625;DHT22;7912;51.376;6.126;2024-03-22T12:34:32;16.20;99.90
15625;DHT22;7912;51.376;6.126;2024-03-22T12:37:02;16.20;99.90
15625;DHT22;7912;51.376;6.126;2024-03-22T12:39:29;16.10;99.90
15625;DHT22;7912;51.376;6.126;2024-03-22T12:41:55;16.10;99.90
15625;DHT22;7912;51.376;6.126;2024-03-22T12:44:21;16.10;99.90
15625;DHT22;7912;51.376;6.126;2024-03-22T12:46:48;16.10;99.90
15625;DHT22;7912;51.376;6.126;2024-03-22T12:49:17;16.10;99.90
15625;DHT22;7912;51.376;6.126;2024-03-22T12:51:43;16.00;99.90
15625;DHT22;7912;51.376;6.126;2024-03-22T12:54:09;16.10;99.90
15625;DHT22;7912;51.376;6.126;2024-03-22T12:56:36;16.10;99.90
15625;DHT22;7912;51.376;6.126;2024-03-22T12:59:05;16.10;99.90
15625;DHT22;7912;51.376;6.126;2024-03-22T13:01:31;16.10;99.90
15625;DHT22;7912;51.376;6.126;2024-03-22T13:03:57;16.10;99.90
15625;DHT22;7912;51.376;6.126;2024-03-22T13:06:26;16.10;99.90
15625;DHT22;7912;51.376;6.126;2024-03-22T13:08:52;16.10;99.90
15625;DHT22;7912;51.376;6.126;2024-03-22T13:11:19;16.10;99.90
15625;DHT22;7912;51.376;6.126;2024-03-22T13:13:45;16.10;99.90
15625;DHT22;7912;51.376;6.126;2024-03-22T13:16:30;16.10;99.90
15625;DHT22;7912;51.376;6.126;2024-03-22T13:18:58;16.10;99.90
15625;DHT22;7912;51.376;6.126;2024-03-22T13:21:25;16.20;99.90
15625;DHT22;7912;51.376;6.126;2024-03-22T13:23:51;16.20;99.90
15625;DHT22;7912;51.376;6.126;2024-03-22T13:26:17;16.20;99.90
15625;DHT22;7912;51.376;6.126;2024-03-22T13:28:44;16.20;99.90
15625;DHT22;7912;51.376;6.126;2024-03-22T13:31:10;16.20;99.90
15625;DHT22;7912;51.376;6.126;2024-03-22T13:33:36;16.20;99.90
15625;DHT22;7912;51.376;6.126;2024-03-22T13:36:03;16.20;99.90
15625;DHT22;7912;51.376;6.126;2024-03-22T13:38:31;16.20;99.90
15625;DHT22;7912;51.376;6.126;2024-03-22T13:40:58;16.20;99.90
15625;DHT22;7912;51.376;6.126;2024-03-22T13:43:29;16.20;99.90
15625;DHT22;7912;51.376;6.126;2024-03-22T13:45:55;16.20;99.90
15625;DHT22;7912;51.376;6.126;2024-03-22T13:48:24;16.20;99.90
15625;DHT22;7912;51.376;6.126;2024-03-22T13:50:54;16.20;99.90
15625;DHT22;7912;51.376;6.126;2024-03-22T13:53:21;16.20;99.90
15625;DHT22;7912;51.376;6.126;2024-03-22T13:55:51;16.20;99.90
15625;DHT22;7912;51.376;6.126;2024-03-22T13:58:20;16.20;99.90
15625;DHT22;7912;51.376;6.126;2024-03-22T14:00:46;16.20;99.90
15625;DHT22;7912;51.376;6.126;2024-03-22T14:03:13;16.20;99.90
15625;DHT22;7912;51.376;6.126;2024-03-22T14:05:42;16.10;99.90
15625;DHT22;7912;51.376;6.126;2024-03-22T14:08:08;16.10;99.90
15625;DHT22;7912;51.376;6.126;2024-03-22T14:10:34;16.10;99.90
15625;DHT22;7912;51.376;6.126;2024-03-22T14:13:01;16.10;99.90
15625;DHT22;7912;51.376;6.126;2024-03-22T14:15:28;16.10;99.90
15625;DHT22;7912;51.376;6.126;2024-03-22T14:17:57;16.00;99.90
15625;DHT22;7912;51.376;6.126;2024-03-22T14:20:24;16.00;99.90
15625;DHT22;7912;51.376;6.126;2024-03-22T14:22:51;16.00;99.90
15625;DHT22;7912;51.376;6.126;2024-03-22T14:25:17;15.90;99.90
15625;DHT22;7912;51.376;6.126;2024-03-22T14:27:44;15.90;99.90
15625;DHT22;7912;51.376;6.126;2024-03-22T14:30:12;15.80;99.90
15625;DHT22;7912;51.376;6.126;2024-03-22T14:32:40;15.80;99.90
15625;DHT22;7912;51.376;6.126;2024-03-22T14:35:07;15.70;99.90
15625;DHT22;7912;51.376;6.126;2024-03-22T14:37:37;15.70;99.90
15625;DHT22;7912;51.376;6.126;2024-03-22T14:40:04;15.60;99.90
15625;DHT22;7912;51.376;6.126;2024-03-22T14:42:31;15.50;99.90
15625;DHT22;7912;51.376;6.126;2024-03-22T14:44:58;15.40;99.90
15625;DHT22;7912;51.376;6.126;2024-03-22T14:47:28;15.40;99.90
15625;DHT22;7912;51.376;6.126;2024-03-22T14:49:55;15.30;99.90
15625;DHT22;7912;51.376;6.126;2024-03-22T14:52:21;15.30;99.90
15625;DHT22;7912;51.376;6.126;2024-03-22T14:54:47;15.30;99.90
15625;DHT22;7912;51.376;6.126;2024-03-22T14:57:14;15.20;99.90
15625;DHT22;7912;51.376;6.126;2024-03-22T14:59:40;15.20;99.90
15625;DHT22;7912;51.376;6.126;2024-03-22T15:02:09;15.20;99.90
15625;DHT22;7912;51.376;6.126;2024-03-22T15:04:35;15.20;99.90
15625;DHT22;7912;51.376;6.126;2024-03-22T15:07:02;15.20;99.90
15625;DHT22;7912;51.376;6.126;2024-03-22T15:09:28;15.20;99.90
15625;DHT22;7912;51.376;6.126;2024-03-22T15:11:54;15.20;99.90
15625;DHT22;7912;51.376;6.126;2024-03-22T15:14:25;15.20;99.90
15625;DHT22;7912;51.376;6.126;2024-03-22T15:16:55;15.20;99.90
15625;DHT22;7912;51.376;6.126;2024-03-22T15:19:22;15.20;99.90
15625;DHT22;7912;51.376;6.126;2024-03-22T15:21:51;15.20;99.90
15625;DHT22;7912;51.376;6.126;2024-03-22T15:24:17;15.20;99.90
15625;DHT22;7912;51.376;6.126;2024-03-22T15:26:45;15.20;99.90
15625;DHT22;7912;51.376;6.126;2024-03-22T15:29:11;15.20;99.90
15625;DHT22;7912;51.376;6.126;2024-03-22T15:31:37;15.20;99.90
15625;DHT22;7912;51.376;6.126;2024-03-22T15:34:03;15.20;99.90
15625;DHT22;7912;51.376;6.126;2024-03-22T15:36:31;15.20;99.90
15625;DHT22;7912;51.376;6.126;2024-03-22T15:38:57;15.10;99.90
15625;DHT22;7912;51.376;6.126;2024-03-22T15:41:23;15.10;99.90
15625;DHT22;7912;51.376;6.126;2024-03-22T15:43:49;15.10;99.90
15625;DHT22;7912;51.376;6.126;2024-03-22T15:46:16;15.10;99.90
15625;DHT22;7912;51.376;6.126;2024-03-22T15:48:42;15.00;99.90
15625;DHT22;7912;51.376;6.126;2024-03-22T15:51:08;15.00;99.90
15625;DHT22;7912;51.376;6.126;2024-03-22T15:53:34;15.00;99.90
15625;DHT22;7912;51.376;6.126;2024-03-22T15:59:04;15.00;99.90